sensor_id;sensor_type;location;lat;lon;timestamp;P1;durP1;ratioP1;P2;durP2;ratioP2
76599;SDS011;65489;52.048;6.090;2023-07-09T07:25:42;3.67;;;2.33;;
76599;SDS011;65489;52.048;6.090;2023-07-09T07:28:08;2.95;;;2.47;;
76599;SDS011;65489;52.048;6.090;2023-07-09T07:30:33;4.00;;;2.72;;
76599;SDS011;65489;52.048;6.090;2023-07-09T07:32:59;3.05;;;2.65;;
76599;SDS011;65489;52.048;6.090;2023-07-09T07:35:24;2.40;;;2.20;;
76599;SDS011;65489;52.048;6.090;2023-07-09T07:37:50;3.33;;;2.63;;
76599;SDS011;65489;52.048;6.090;2023-07-09T07:40:15;2.10;;;1.90;;
76599;SDS011;65489;52.048;6.090;2023-07-09T07:42:41;3.25;;;2.50;;
76599;SDS011;65489;52.048;6.090;2023-07-09T07:45:06;3.90;;;2.90;;
76599;SDS011;65489;52.048;6.090;2023-07-09T07:47:32;3.72;;;2.83;;
76599;SDS011;65489;52.048;6.090;2023-07-09T07:49:58;4.78;;;3.20;;
76599;SDS011;65489;52.048;6.090;2023-07-09T07:52:24;3.85;;;2.92;;
76599;SDS011;65489;52.048;6.090;2023-07-09T07:54:51;5.32;;;3.83;;
76599;SDS011;65489;52.048;6.090;2023-07-09T07:57:18;5.22;;;3.70;;
76599;SDS011;65489;52.048;6.090;2023-07-09T07:59:43;4.10;;;3.28;;
76599;SDS011;65489;52.048;6.090;2023-07-09T08:02:13;4.55;;;3.80;;
76599;SDS011;65489;52.048;6.090;2023-07-09T08:04:39;8.27;;;3.65;;
76599;SDS011;65489;52.048;6.090;2023-07-09T08:07:06;4.13;;;3.63;;
76599;SDS011;65489;52.048;6.090;2023-07-09T08:09:33;3.53;;;3.10;;
76599;SDS011;65489;52.048;6.090;2023-07-09T08:11:59;4.32;;;3.40;;
76599;SDS011;65489;52.048;6.090;2023-07-09T08:14:25;6.38;;;4.22;;
76599;SDS011;65489;52.048;6.090;2023-07-09T08:16:50;5.60;;;3.80;;
76599;SDS011;65489;52.048;6.090;2023-07-09T08:19:18;6.75;;;3.55;;
76599;SDS011;65489;52.048;6.090;2023-07-09T08:21:44;6.38;;;4.10;;
76599;SDS011;65489;52.048;6.090;2023-07-09T08:24:10;5.50;;;3.83;;
76599;SDS011;65489;52.048;6.090;2023-07-09T08:26:35;4.85;;;3.85;;
76599;SDS011;65489;52.048;6.090;2023-07-09T08:29:03;5.60;;;4.15;;
76599;SDS011;65489;52.048;6.090;2023-07-09T08:31:28;4.90;;;3.83;;
76599;SDS011;65489;52.048;6.090;2023-07-09T08:33:54;5.32;;;3.72;;
76599;SDS011;65489;52.048;6.090;2023-07-09T08:36:19;5.65;;;4.18;;
76599;SDS011;65489;52.048;6.090;2023-07-09T08:38:45;5.90;;;3.85;;
76599;SDS011;65489;52.048;6.090;2023-07-09T08:41:20;4.57;;;3.85;;
76599;SDS011;65489;52.048;6.090;2023-07-09T08:43:58;4.88;;;3.63;;
76599;SDS011;65489;52.048;6.090;2023-07-09T08:52:28;6.60;;;3.78;;
76599;SDS011;65489;52.048;6.090;2023-07-09T08:54:53;5.45;;;4.00;;
76599;SDS011;65489;52.048;6.090;2023-07-09T08:57:22;4.38;;;3.92;;
76599;SDS011;65489;52.048;6.090;2023-07-09T08:59:51;5.95;;;3.75;;
76599;SDS011;65489;52.048;6.090;2023-07-09T09:05:22;5.40;;;3.78;;
76599;SDS011;65489;52.048;6.090;2023-07-09T09:07:58;4.55;;;3.67;;
76599;SDS011;65489;52.048;6.090;2023-07-09T09:10:29;7.75;;;4.43;;
76599;SDS011;65489;52.048;6.090;2023-07-09T09:13:04;7.07;;;4.28;;
76599;SDS011;65489;52.048;6.090;2023-07-09T09:15:41;6.78;;;3.95;;
76599;SDS011;65489;52.048;6.090;2023-07-09T09:18:17;5.00;;;3.88;;
76599;SDS011;65489;52.048;6.090;2023-07-09T09:23:42;4.57;;;3.75;;
76599;SDS011;65489;52.048;6.090;2023-07-09T09:26:14;5.75;;;4.25;;
76599;SDS011;65489;52.048;6.090;2023-07-09T09:28:43;5.78;;;3.75;;
76599;SDS011;65489;52.048;6.090;2023-07-09T09:31:10;5.38;;;3.95;;
76599;SDS011;65489;52.048;6.090;2023-07-09T09:33:36;4.57;;;3.80;;
76599;SDS011;65489;52.048;6.090;2023-07-09T09:36:11;6.28;;;3.70;;
76599;SDS011;65489;52.048;6.090;2023-07-09T09:38:42;5.07;;;4.10;;
76599;SDS011;65489;52.048;6.090;2023-07-09T09:41:16;6.00;;;4.03;;
76599;SDS011;65489;52.048;6.090;2023-07-09T09:43:52;5.38;;;4.10;;
76599;SDS011;65489;52.048;6.090;2023-07-09T09:46:19;5.50;;;3.85;;
76599;SDS011;65489;52.048;6.090;2023-07-09T09:48:50;6.28;;;4.80;;
76599;SDS011;65489;52.048;6.090;2023-07-09T09:51:17;6.57;;;4.78;;
76599;SDS011;65489;52.048;6.090;2023-07-09T09:53:49;8.10;;;4.50;;
76599;SDS011;65489;52.048;6.090;2023-07-09T09:56:24;4.82;;;4.05;;
76599;SDS011;65489;52.048;6.090;2023-07-09T09:58:54;5.47;;;3.92;;
76599;SDS011;65489;52.048;6.090;2023-07-09T10:01:24;6.65;;;3.95;;
76599;SDS011;65489;52.048;6.090;2023-07-09T10:03:58;4.90;;;4.20;;
76599;SDS011;65489;52.048;6.090;2023-07-09T10:17:15;6.72;;;4.25;;
76599;SDS011;65489;52.048;6.090;2023-07-09T10:20:07;4.75;;;3.63;;
76599;SDS011;65489;52.048;6.090;2023-07-09T10:26:01;4.20;;;3.53;;
76599;SDS011;65489;52.048;6.090;2023-07-09T10:31:20;5.55;;;3.85;;
76599;SDS011;65489;52.048;6.090;2023-07-09T10:34:13;4.50;;;3.90;;
76599;SDS011;65489;52.048;6.090;2023-07-09T10:39:28;5.57;;;3.87;;
76599;SDS011;65489;52.048;6.090;2023-07-09T10:41:57;5.93;;;4.25;;
76599;SDS011;65489;52.048;6.090;2023-07-09T10:44:35;7.03;;;4.53;;
76599;SDS011;65489;52.048;6.090;2023-07-09T10:47:04;7.88;;;4.20;;
76599;SDS011;65489;52.048;6.090;2023-07-09T10:49:37;6.38;;;4.45;;
76599;SDS011;65489;52.048;6.090;2023-07-09T11:00:23;6.38;;;3.47;;
76599;SDS011;65489;52.048;6.090;2023-07-09T11:05:46;5.88;;;4.00;;
76599;SDS011;65489;52.048;6.090;2023-07-09T11:08:47;5.35;;;3.97;;
76599;SDS011;65489;52.048;6.090;2023-07-09T11:11:10;6.57;;;3.58;;
76599;SDS011;65489;52.048;6.090;2023-07-09T11:16:18;5.35;;;3.83;;
76599;SDS011;65489;52.048;6.090;2023-07-09T11:18:55;5.63;;;3.95;;
76599;SDS011;65489;52.048;6.090;2023-07-09T11:21:23;6.28;;;3.83;;
76599;SDS011;65489;52.048;6.090;2023-07-09T11:23:49;5.80;;;4.40;;
76599;SDS011;65489;52.048;6.090;2023-07-09T11:28:51;6.10;;;3.75;;
76599;SDS011;65489;52.048;6.090;2023-07-09T11:31:31;6.53;;;3.67;;
76599;SDS011;65489;52.048;6.090;2023-07-09T11:36:33;5.45;;;3.83;;
76599;SDS011;65489;52.048;6.090;2023-07-09T11:38:59;7.28;;;3.72;;
76599;SDS011;65489;52.048;6.090;2023-07-09T11:52:17;5.40;;;3.28;;
76599;SDS011;65489;52.048;6.090;2023-07-09T11:54:48;4.10;;;3.42;;
76599;SDS011;65489;52.048;6.090;2023-07-09T11:57:13;3.67;;;3.03;;
76599;SDS011;65489;52.048;6.090;2023-07-09T11:59:40;4.38;;;3.38;;
76599;SDS011;65489;52.048;6.090;2023-07-09T12:02:08;4.30;;;3.22;;
76599;SDS011;65489;52.048;6.090;2023-07-09T12:04:47;4.90;;;3.47;;
76599;SDS011;65489;52.048;6.090;2023-07-09T12:07:14;4.97;;;3.40;;
76599;SDS011;65489;52.048;6.090;2023-07-09T12:09:43;5.93;;;3.53;;
76599;SDS011;65489;52.048;6.090;2023-07-09T12:12:18;4.18;;;3.10;;
76599;SDS011;65489;52.048;6.090;2023-07-09T12:14:49;5.15;;;3.47;;
76599;SDS011;65489;52.048;6.090;2023-07-09T12:17:15;5.53;;;3.40;;
76599;SDS011;65489;52.048;6.090;2023-07-09T12:19:40;4.78;;;3.35;;
76599;SDS011;65489;52.048;6.090;2023-07-09T12:22:06;4.95;;;3.55;;
76599;SDS011;65489;52.048;6.090;2023-07-09T12:24:36;5.18;;;3.38;;
76599;SDS011;65489;52.048;6.090;2023-07-09T12:27:04;4.25;;;3.20;;
76599;SDS011;65489;52.048;6.090;2023-07-09T12:29:42;4.82;;;2.95;;
76599;SDS011;65489;52.048;6.090;2023-07-09T12:32:12;4.45;;;3.25;;
76599;SDS011;65489;52.048;6.090;2023-07-09T12:34:39;4.38;;;3.10;;
76599;SDS011;65489;52.048;6.090;2023-07-09T12:37:05;3.97;;;2.92;;
76599;SDS011;65489;52.048;6.090;2023-07-09T12:39:42;4.30;;;3.30;;
76599;SDS011;65489;52.048;6.090;2023-07-09T12:42:49;4.18;;;3.15;;
76599;SDS011;65489;52.048;6.090;2023-07-09T12:44:57;5.28;;;3.42;;
76599;SDS011;65489;52.048;6.090;2023-07-09T12:47:23;5.85;;;3.17;;
76599;SDS011;65489;52.048;6.090;2023-07-09T12:49:50;4.72;;;3.13;;
76599;SDS011;65489;52.048;6.090;2023-07-09T12:52:19;3.40;;;2.97;;
76599;SDS011;65489;52.048;6.090;2023-07-09T12:54:58;3.87;;;2.97;;
76599;SDS011;65489;52.048;6.090;2023-07-09T12:57:27;3.97;;;3.00;;
76599;SDS011;65489;52.048;6.090;2023-07-09T12:59:54;3.63;;;2.88;;
76599;SDS011;65489;52.048;6.090;2023-07-09T13:02:21;4.22;;;2.90;;
76599;SDS011;65489;52.048;6.090;2023-07-09T13:04:57;3.83;;;2.97;;
76599;SDS011;65489;52.048;6.090;2023-07-09T13:09:51;3.38;;;2.65;;
76599;SDS011;65489;52.048;6.090;2023-07-09T13:12:18;4.93;;;2.80;;
76599;SDS011;65489;52.048;6.090;2023-07-09T13:14:47;3.60;;;2.85;;
76599;SDS011;65489;52.048;6.090;2023-07-09T13:17:18;5.53;;;2.85;;
76599;SDS011;65489;52.048;6.090;2023-07-09T13:19:43;4.15;;;2.90;;
76599;SDS011;65489;52.048;6.090;2023-07-09T13:22:11;5.88;;;2.67;;
76599;SDS011;65489;52.048;6.090;2023-07-09T13:24:39;4.13;;;2.78;;
76599;SDS011;65489;52.048;6.090;2023-07-09T13:27:04;3.20;;;2.53;;
76599;SDS011;65489;52.048;6.090;2023-07-09T13:29:33;4.25;;;2.70;;
76599;SDS011;65489;52.048;6.090;2023-07-09T13:31:58;3.10;;;2.75;;
76599;SDS011;65489;52.048;6.090;2023-07-09T13:34:25;3.65;;;2.65;;
76599;SDS011;65489;52.048;6.090;2023-07-09T13:36:52;3.30;;;2.40;;
76599;SDS011;65489;52.048;6.090;2023-07-09T13:39:19;5.10;;;2.70;;
76599;SDS011;65489;52.048;6.090;2023-07-09T13:41:46;3.33;;;2.78;;
76599;SDS011;65489;52.048;6.090;2023-07-09T13:44:23;4.07;;;2.65;;
76599;SDS011;65489;52.048;6.090;2023-07-09T13:46:50;4.78;;;2.83;;
76599;SDS011;65489;52.048;6.090;2023-07-09T13:49:17;3.40;;;2.67;;
76599;SDS011;65489;52.048;6.090;2023-07-09T13:51:44;4.15;;;2.97;;
76599;SDS011;65489;52.048;6.090;2023-07-09T13:54:16;5.45;;;2.65;;
76599;SDS011;65489;52.048;6.090;2023-07-09T13:56:49;4.05;;;2.35;;
76599;SDS011;65489;52.048;6.090;2023-07-09T13:59:19;3.65;;;2.88;;
76599;SDS011;65489;52.048;6.090;2023-07-09T14:01:52;3.83;;;2.65;;
76599;SDS011;65489;52.048;6.090;2023-07-09T14:04:22;3.17;;;2.67;;
76599;SDS011;65489;52.048;6.090;2023-07-09T14:06:47;2.92;;;2.38;;
76599;SDS011;65489;52.048;6.090;2023-07-09T14:09:14;4.22;;;2.60;;
76599;SDS011;65489;52.048;6.090;2023-07-09T14:11:50;2.90;;;2.60;;
76599;SDS011;65489;52.048;6.090;2023-07-09T14:14:24;3.90;;;2.55;;
76599;SDS011;65489;52.048;6.090;2023-07-09T14:16:55;4.13;;;2.60;;
76599;SDS011;65489;52.048;6.090;2023-07-09T14:19:22;3.38;;;2.58;;
76599;SDS011;65489;52.048;6.090;2023-07-09T14:21:48;3.47;;;2.55;;
76599;SDS011;65489;52.048;6.090;2023-07-09T14:24:22;3.28;;;2.55;;
76599;SDS011;65489;52.048;6.090;2023-07-09T14:26:48;3.63;;;2.80;;
76599;SDS011;65489;52.048;6.090;2023-07-09T14:29:14;3.08;;;2.60;;
76599;SDS011;65489;52.048;6.090;2023-07-09T14:31:40;4.43;;;3.08;;
76599;SDS011;65489;52.048;6.090;2023-07-09T14:36:51;3.97;;;3.00;;
76599;SDS011;65489;52.048;6.090;2023-07-09T14:39:18;5.43;;;3.28;;
76599;SDS011;65489;52.048;6.090;2023-07-09T14:41:44;3.85;;;3.25;;
76599;SDS011;65489;52.048;6.090;2023-07-09T14:46:41;4.28;;;3.35;;
76599;SDS011;65489;52.048;6.090;2023-07-09T14:49:07;5.15;;;3.38;;
76599;SDS011;65489;52.048;6.090;2023-07-09T14:51:32;5.22;;;3.50;;
76599;SDS011;65489;52.048;6.090;2023-07-09T14:53:58;3.75;;;3.10;;
76599;SDS011;65489;52.048;6.090;2023-07-09T14:56:23;4.05;;;3.28;;
76599;SDS011;65489;52.048;6.090;2023-07-09T14:58:49;4.05;;;3.47;;
76599;SDS011;65489;52.048;6.090;2023-07-09T15:01:14;6.97;;;3.40;;
76599;SDS011;65489;52.048;6.090;2023-07-09T20:08:50;1.48;;;0.60;;
76599;SDS011;65489;52.048;6.090;2023-07-09T20:11:15;1.95;;;0.75;;
76599;SDS011;65489;52.048;6.090;2023-07-09T20:13:41;3.13;;;1.00;;
76599;SDS011;65489;52.048;6.090;2023-07-09T20:16:11;4.20;;;1.33;;
76599;SDS011;65489;52.048;6.090;2023-07-09T20:18:42;2.53;;;1.20;;
76599;SDS011;65489;52.048;6.090;2023-07-09T20:21:14;1.92;;;1.00;;
76599;SDS011;65489;52.048;6.090;2023-07-09T20:23:43;1.45;;;1.00;;
76599;SDS011;65489;52.048;6.090;2023-07-09T20:26:08;2.10;;;1.25;;
76599;SDS011;65489;52.048;6.090;2023-07-09T20:28:35;2.58;;;1.23;;
76599;SDS011;65489;52.048;6.090;2023-07-09T20:31:00;1.88;;;1.20;;
76599;SDS011;65489;52.048;6.090;2023-07-09T20:33:26;1.98;;;1.40;;
76599;SDS011;65489;52.048;6.090;2023-07-09T20:35:53;2.13;;;1.40;;
76599;SDS011;65489;52.048;6.090;2023-07-09T20:38:19;1.98;;;1.10;;
76599;SDS011;65489;52.048;6.090;2023-07-09T20:40:47;1.73;;;1.40;;
76599;SDS011;65489;52.048;6.090;2023-07-09T20:43:21;1.25;;;1.05;;
76599;SDS011;65489;52.048;6.090;2023-07-09T20:45:49;2.28;;;1.25;;
76599;SDS011;65489;52.048;6.090;2023-07-09T20:48:15;1.38;;;1.17;;
76599;SDS011;65489;52.048;6.090;2023-07-09T20:50:40;3.17;;;1.38;;
76599;SDS011;65489;52.048;6.090;2023-07-09T20:53:11;1.98;;;1.23;;
76599;SDS011;65489;52.048;6.090;2023-07-09T20:58:03;1.42;;;1.00;;
76599;SDS011;65489;52.048;6.090;2023-07-09T21:00:28;1.63;;;1.10;;
76599;SDS011;65489;52.048;6.090;2023-07-09T21:02:54;1.52;;;1.20;;
76599;SDS011;65489;52.048;6.090;2023-07-09T21:05:19;1.30;;;1.20;;
76599;SDS011;65489;52.048;6.090;2023-07-09T21:07:48;3.72;;;1.30;;
76599;SDS011;65489;52.048;6.090;2023-07-09T21:10:19;4.15;;;1.42;;
76599;SDS011;65489;52.048;6.090;2023-07-09T21:12:46;1.65;;;1.40;;
76599;SDS011;65489;52.048;6.090;2023-07-09T21:15:13;1.50;;;1.20;;
76599;SDS011;65489;52.048;6.090;2023-07-09T21:17:39;1.67;;;1.23;;
76599;SDS011;65489;52.048;6.090;2023-07-09T21:20:11;2.17;;;1.15;;
76599;SDS011;65489;52.048;6.090;2023-07-09T21:22:38;1.63;;;1.33;;
76599;SDS011;65489;52.048;6.090;2023-07-09T21:25:14;1.80;;;1.20;;
76599;SDS011;65489;52.048;6.090;2023-07-09T21:27:41;2.00;;;1.00;;
76599;SDS011;65489;52.048;6.090;2023-07-09T21:30:08;1.10;;;1.00;;
76599;SDS011;65489;52.048;6.090;2023-07-09T21:32:34;2.00;;;1.40;;
76599;SDS011;65489;52.048;6.090;2023-07-09T21:34:59;1.30;;;1.10;;
76599;SDS011;65489;52.048;6.090;2023-07-09T21:37:25;3.25;;;1.30;;
76599;SDS011;65489;52.048;6.090;2023-07-09T21:39:50;1.27;;;1.00;;
76599;SDS011;65489;52.048;6.090;2023-07-09T21:42:16;2.83;;;1.33;;
76599;SDS011;65489;52.048;6.090;2023-07-09T21:44:42;2.00;;;1.40;;
76599;SDS011;65489;52.048;6.090;2023-07-09T21:47:10;1.42;;;1.20;;
76599;SDS011;65489;52.048;6.090;2023-07-09T21:49:38;1.50;;;1.13;;
76599;SDS011;65489;52.048;6.090;2023-07-09T21:52:12;2.25;;;1.48;;
76599;SDS011;65489;52.048;6.090;2023-07-09T21:54:38;3.00;;;1.25;;
76599;SDS011;65489;52.048;6.090;2023-07-09T21:57:03;2.72;;;1.35;;
76599;SDS011;65489;52.048;6.090;2023-07-09T21:59:30;2.00;;;1.55;;
76599;SDS011;65489;52.048;6.090;2023-07-09T22:01:58;1.85;;;1.38;;
76599;SDS011;65489;52.048;6.090;2023-07-09T22:04:29;3.72;;;1.55;;
76599;SDS011;65489;52.048;6.090;2023-07-09T22:06:56;2.00;;;1.33;;
76599;SDS011;65489;52.048;6.090;2023-07-09T22:09:22;1.75;;;1.40;;
76599;SDS011;65489;52.048;6.090;2023-07-09T22:11:49;1.55;;;1.23;;
76599;SDS011;65489;52.048;6.090;2023-07-09T22:14:16;2.03;;;1.33;;
76599;SDS011;65489;52.048;6.090;2023-07-09T22:16:43;4.45;;;1.63;;
76599;SDS011;65489;52.048;6.090;2023-07-09T22:19:12;2.10;;;1.52;;
76599;SDS011;65489;52.048;6.090;2023-07-09T22:21:38;1.70;;;1.35;;
76599;SDS011;65489;52.048;6.090;2023-07-09T22:24:04;4.35;;;1.70;;
76599;SDS011;65489;52.048;6.090;2023-07-09T22:26:33;2.42;;;1.60;;
76599;SDS011;65489;52.048;6.090;2023-07-09T22:29:00;2.13;;;1.40;;
76599;SDS011;65489;52.048;6.090;2023-07-09T22:31:25;2.38;;;1.55;;
76599;SDS011;65489;52.048;6.090;2023-07-09T22:33:52;1.75;;;1.40;;
76599;SDS011;65489;52.048;6.090;2023-07-09T22:36:17;1.85;;;1.48;;
76599;SDS011;65489;52.048;6.090;2023-07-09T22:38:43;1.80;;;1.58;;
76599;SDS011;65489;52.048;6.090;2023-07-09T22:41:09;2.35;;;1.75;;
76599;SDS011;65489;52.048;6.090;2023-07-09T22:43:34;1.70;;;1.60;;
76599;SDS011;65489;52.048;6.090;2023-07-09T22:46:00;2.10;;;1.67;;
76599;SDS011;65489;52.048;6.090;2023-07-09T22:48:25;3.25;;;1.80;;
76599;SDS011;65489;52.048;6.090;2023-07-09T22:50:51;2.40;;;1.80;;
76599;SDS011;65489;52.048;6.090;2023-07-09T22:53:21;1.90;;;1.63;;
76599;SDS011;65489;52.048;6.090;2023-07-09T22:55:48;3.42;;;1.52;;
76599;SDS011;65489;52.048;6.090;2023-07-09T22:58:16;2.33;;;1.85;;
76599;SDS011;65489;52.048;6.090;2023-07-09T23:00:47;2.13;;;1.70;;
76599;SDS011;65489;52.048;6.090;2023-07-09T23:03:27;2.30;;;1.60;;
76599;SDS011;65489;52.048;6.090;2023-07-09T23:05:57;2.08;;;1.60;;
76599;SDS011;65489;52.048;6.090;2023-07-09T23:08:27;1.83;;;1.55;;
76599;SDS011;65489;52.048;6.090;2023-07-09T23:10:54;1.77;;;1.63;;
76599;SDS011;65489;52.048;6.090;2023-07-09T23:13:21;2.72;;;1.88;;
76599;SDS011;65489;52.048;6.090;2023-07-09T23:15:48;2.50;;;2.00;;
76599;SDS011;65489;52.048;6.090;2023-07-09T23:18:16;2.72;;;1.85;;
76599;SDS011;65489;52.048;6.090;2023-07-09T23:20:43;2.15;;;1.92;;
76599;SDS011;65489;52.048;6.090;2023-07-09T23:23:09;2.45;;;2.08;;
76599;SDS011;65489;52.048;6.090;2023-07-09T23:25:35;3.22;;;1.92;;
76599;SDS011;65489;52.048;6.090;2023-07-09T23:28:00;3.17;;;2.03;;
76599;SDS011;65489;52.048;6.090;2023-07-09T23:30:28;2.85;;;2.00;;
76599;SDS011;65489;52.048;6.090;2023-07-09T23:33:02;3.25;;;2.30;;
76599;SDS011;65489;52.048;6.090;2023-07-09T23:35:28;2.63;;;2.10;;
76599;SDS011;65489;52.048;6.090;2023-07-09T23:37:53;2.17;;;1.90;;
76599;SDS011;65489;52.048;6.090;2023-07-09T23:40:20;2.08;;;1.85;;
76599;SDS011;65489;52.048;6.090;2023-07-09T23:42:47;2.20;;;1.98;;
76599;SDS011;65489;52.048;6.090;2023-07-09T23:45:18;2.17;;;1.98;;
76599;SDS011;65489;52.048;6.090;2023-07-09T23:47:47;2.50;;;1.92;;
76599;SDS011;65489;52.048;6.090;2023-07-09T23:50:15;2.58;;;2.05;;
76599;SDS011;65489;52.048;6.090;2023-07-09T23:52:43;2.17;;;1.95;;
76599;SDS011;65489;52.048;6.090;2023-07-09T23:55:09;2.50;;;2.05;;
76599;SDS011;65489;52.048;6.090;2023-07-09T23:57:35;2.67;;;2.30;;
